createdAt,value
2017-10-31T00:02:03.743Z,10.77
2017-10-31T00:04:31.230Z,7.63
2017-10-31T00:06:58.794Z,8.83
2017-10-31T00:09:26.402Z,6.87
2017-10-31T00:11:53.984Z,6.73
2017-10-31T00:14:21.592Z,7.70
2017-10-31T00:16:49.121Z,6.77
2017-10-31T00:19:16.679Z,6.60
2017-10-31T00:21:44.238Z,9.23
2017-10-31T00:24:12.384Z,7.17
2017-10-31T00:26:39.912Z,9.80
2017-10-31T00:29:07.407Z,7.10
2017-10-31T00:31:34.916Z,7.30
2017-10-31T00:34:02.584Z,8.33
2017-10-31T00:36:30.067Z,8.00
2017-10-31T00:38:57.533Z,4.07
2017-10-31T00:41:25.090Z,5.73
2017-10-31T00:43:52.896Z,7.33
2017-10-31T00:46:20.709Z,5.33
2017-10-31T00:48:48.458Z,4.43
2017-10-31T00:51:17.100Z,7.90
2017-10-31T00:53:45.219Z,6.00
2017-10-31T00:56:13.611Z,6.33
2017-10-31T00:58:41.132Z,8.63
2017-10-31T01:01:08.604Z,5.20
2017-10-31T01:03:36.092Z,5.63
2017-10-31T01:06:03.592Z,4.80
2017-10-31T01:08:31.040Z,7.60
2017-10-31T01:10:58.540Z,5.83
2017-10-31T01:13:25.984Z,6.30
2017-10-31T01:15:53.766Z,6.20
2017-10-31T01:18:21.239Z,7.20
2017-10-31T01:20:49.992Z,4.73
2017-10-31T01:23:17.484Z,5.53
2017-10-31T01:25:45.300Z,5.60
2017-10-31T01:28:12.811Z,9.70
2017-10-31T01:30:40.291Z,5.83
2017-10-31T01:33:07.790Z,6.87
2017-10-31T01:35:35.331Z,7.20
2017-10-31T01:38:04.112Z,5.63
2017-10-31T01:40:31.576Z,6.97
2017-10-31T01:43:00.403Z,4.80
2017-10-31T01:45:27.898Z,5.93
2017-10-31T01:47:55.454Z,8.97
2017-10-31T01:50:22.993Z,8.97
2017-10-31T01:52:50.536Z,5.30
2017-10-31T01:55:18.069Z,4.27
2017-10-31T01:57:45.644Z,4.57
2017-10-31T02:00:13.171Z,6.00
2017-10-31T02:02:42.670Z,6.63
2017-10-31T02:05:10.864Z,9.47
2017-10-31T02:07:39.225Z,6.20
2017-10-31T02:10:06.754Z,6.07
2017-10-31T02:12:34.259Z,8.77
2017-10-31T02:15:01.845Z,4.60
2017-10-31T02:17:30.437Z,5.20
2017-10-31T02:19:57.997Z,5.40
2017-10-31T02:22:25.525Z,5.10
2017-10-31T02:24:53.852Z,5.40
2017-10-31T02:27:22.111Z,5.63
2017-10-31T02:29:50.944Z,6.53
2017-10-31T02:32:18.478Z,7.30
2017-10-31T02:34:46.685Z,8.60
2017-10-31T02:37:14.236Z,5.57
2017-10-31T02:39:41.853Z,6.00
2017-10-31T02:42:10.046Z,6.63
2017-10-31T02:44:38.359Z,6.20
2017-10-31T02:47:06.949Z,7.67
2017-10-31T02:49:36.201Z,9.47
2017-10-31T02:52:03.778Z,5.80
2017-10-31T02:54:31.346Z,5.80
2017-10-31T02:56:59.817Z,6.07
2017-10-31T02:59:27.357Z,6.97
2017-10-31T03:01:54.915Z,5.93
2017-10-31T03:04:22.440Z,9.53
2017-10-31T03:06:55.059Z,9.30
2017-10-31T03:09:22.593Z,7.07
2017-10-31T03:11:50.173Z,10.70
2017-10-31T03:14:17.770Z,6.50
2017-10-31T03:16:45.344Z,7.07
2017-10-31T03:19:13.847Z,6.10
2017-10-31T03:21:41.732Z,6.63
2017-10-31T03:24:09.256Z,6.60
2017-10-31T03:26:36.779Z,5.67
2017-10-31T03:29:04.291Z,6.13
2017-10-31T03:31:31.832Z,6.67
2017-10-31T03:33:59.399Z,6.83
2017-10-31T03:36:26.985Z,9.67
2017-10-31T03:38:54.542Z,6.70
2017-10-31T03:41:22.077Z,6.80
2017-10-31T03:43:49.610Z,7.83
2017-10-31T03:46:17.184Z,7.70
2017-10-31T03:48:44.822Z,4.73
2017-10-31T03:51:12.905Z,6.90
2017-10-31T03:53:42.908Z,7.67
2017-10-31T03:56:11.445Z,8.20
2017-10-31T03:58:39.180Z,5.53
2017-10-31T04:01:06.755Z,6.73
2017-10-31T04:03:34.604Z,10.47
2017-10-31T04:06:02.739Z,6.43
2017-10-31T04:08:30.264Z,12.10
2017-10-31T04:10:57.808Z,8.70
2017-10-31T04:13:26.326Z,6.10
2017-10-31T04:15:55.151Z,9.67
2017-10-31T04:18:24.883Z,9.40
2017-10-31T04:20:53.160Z,10.30
2017-10-31T04:26:02.557Z,11.33
2017-10-31T04:28:30.110Z,9.77
2017-10-31T04:30:57.750Z,6.73
2017-10-31T04:33:25.417Z,10.03
2017-10-31T04:35:52.937Z,14.20
2017-10-31T04:38:26.153Z,8.17
2017-10-31T04:43:35.681Z,11.03
2017-10-31T04:46:03.333Z,10.87
2017-10-31T04:48:30.805Z,7.83
2017-10-31T04:50:58.270Z,9.33
2017-10-31T04:53:25.918Z,9.90
2017-10-31T04:55:53.512Z,8.57
2017-10-31T04:58:21.079Z,10.70
2017-10-31T05:00:48.690Z,9.23
2017-10-31T05:03:16.221Z,7.70
2017-10-31T05:05:43.890Z,9.07
2017-10-31T05:08:11.450Z,7.07
2017-10-31T05:10:38.950Z,10.37
2017-10-31T05:13:06.464Z,13.73
2017-10-31T05:15:33.971Z,11.53
2017-10-31T05:18:01.482Z,11.07
2017-10-31T05:20:29.003Z,12.03
2017-10-31T05:22:56.461Z,11.33
2017-10-31T05:25:23.957Z,10.90
2017-10-31T05:27:51.471Z,9.17
2017-10-31T05:30:19.106Z,9.43
2017-10-31T05:32:46.581Z,8.67
2017-10-31T05:35:14.120Z,8.17
2017-10-31T05:37:41.612Z,7.90
2017-10-31T05:40:09.142Z,11.40
2017-10-31T05:42:36.912Z,9.67
2017-10-31T05:45:04.445Z,14.07
2017-10-31T05:47:31.974Z,11.17
2017-10-31T05:49:59.477Z,8.43
2017-10-31T05:52:27.178Z,9.73
2017-10-31T05:54:54.679Z,11.27
2017-10-31T05:57:22.170Z,12.63
2017-10-31T05:59:49.666Z,11.00
2017-10-31T06:02:17.121Z,9.80
2017-10-31T06:04:44.629Z,9.73
2017-10-31T06:07:12.172Z,11.03
2017-10-31T06:09:39.706Z,10.77
2017-10-31T06:12:07.255Z,9.47
2017-10-31T06:14:34.776Z,7.23
2017-10-31T06:17:02.631Z,6.70
2017-10-31T06:19:30.137Z,10.10
2017-10-31T06:22:03.246Z,7.53
2017-10-31T06:24:36.386Z,12.13
2017-10-31T06:27:09.542Z,10.60
2017-10-31T06:29:42.589Z,10.03
2017-10-31T06:32:10.905Z,11.97
2017-10-31T06:34:38.426Z,12.57
2017-10-31T06:37:05.938Z,12.37
2017-10-31T06:39:33.466Z,7.83
2017-10-31T06:42:00.992Z,8.53
2017-10-31T06:44:28.589Z,10.53
2017-10-31T06:46:56.076Z,11.33
2017-10-31T06:49:23.876Z,9.73
2017-10-31T06:51:51.463Z,11.10
2017-10-31T06:54:18.941Z,14.07
2017-10-31T06:56:46.422Z,10.67
2017-10-31T06:59:14.047Z,9.20
2017-10-31T07:01:41.551Z,13.07
2017-10-31T07:04:09.032Z,10.77
2017-10-31T07:06:36.537Z,12.67
2017-10-31T07:09:04.045Z,14.23
2017-10-31T07:11:31.519Z,11.33
2017-10-31T07:13:59.069Z,12.33
2017-10-31T07:16:26.528Z,15.73
2017-10-31T07:18:54.067Z,11.60
2017-10-31T07:21:21.605Z,13.93
2017-10-31T07:23:49.102Z,10.00
2017-10-31T07:26:16.584Z,12.87
2017-10-31T07:28:44.153Z,10.03
2017-10-31T07:31:11.677Z,11.43
2017-10-31T07:33:39.162Z,15.20
2017-10-31T07:36:06.745Z,9.37
2017-10-31T07:38:34.353Z,11.63
2017-10-31T07:41:01.817Z,9.77
2017-10-31T07:43:29.316Z,16.67
2017-10-31T07:45:56.865Z,9.50
2017-10-31T07:48:24.639Z,10.43
2017-10-31T07:50:52.137Z,10.23
2017-10-31T07:53:19.710Z,11.20
2017-10-31T07:55:49.278Z,10.40
2017-10-31T07:58:17.268Z,13.73
2017-10-31T08:00:44.731Z,12.30
2017-10-31T08:03:12.186Z,10.50
2017-10-31T08:05:39.643Z,11.90
2017-10-31T08:08:07.210Z,8.93
2017-10-31T08:10:34.831Z,11.80
2017-10-31T08:13:03.631Z,9.43
2017-10-31T08:15:31.239Z,12.00
2017-10-31T08:17:58.755Z,12.67
2017-10-31T08:20:26.611Z,13.43
2017-10-31T08:22:54.120Z,14.43
2017-10-31T08:25:21.684Z,15.93
2017-10-31T08:27:49.203Z,11.77
2017-10-31T08:30:16.689Z,14.40
2017-10-31T08:32:44.250Z,9.37
2017-10-31T08:35:11.772Z,9.80
2017-10-31T08:37:39.259Z,9.33
2017-10-31T08:40:07.772Z,10.10
2017-10-31T08:42:36.059Z,11.23
2017-10-31T08:45:03.539Z,9.70
2017-10-31T08:47:31.079Z,9.17
2017-10-31T08:49:58.594Z,10.77
2017-10-31T08:52:26.125Z,16.37
2017-10-31T08:54:54.282Z,10.50
2017-10-31T08:57:21.832Z,7.97
2017-10-31T08:59:49.335Z,10.63
2017-10-31T09:02:16.841Z,12.27
2017-10-31T09:04:44.405Z,11.47
2017-10-31T09:07:12.669Z,11.33
2017-10-31T09:09:40.188Z,11.00
2017-10-31T09:12:07.753Z,8.90
2017-10-31T09:14:35.354Z,10.50
2017-10-31T09:17:02.878Z,7.80
2017-10-31T09:19:30.523Z,13.03
2017-10-31T09:21:58.068Z,8.27
2017-10-31T09:24:25.541Z,7.90
2017-10-31T09:26:53.226Z,10.17
2017-10-31T09:29:21.136Z,11.27
2017-10-31T09:31:48.702Z,9.73
2017-10-31T09:34:16.288Z,9.30
2017-10-31T09:36:43.793Z,8.17
2017-10-31T09:39:11.455Z,10.23
2017-10-31T09:41:39.181Z,12.60
2017-10-31T09:44:06.646Z,9.73
2017-10-31T09:46:34.178Z,9.13
2017-10-31T09:49:01.692Z,9.30
2017-10-31T09:51:29.279Z,9.50
2017-10-31T09:53:57.645Z,8.23
2017-10-31T09:56:25.215Z,10.17
2017-10-31T09:58:52.899Z,9.27
2017-10-31T10:01:20.411Z,9.60
2017-10-31T10:03:48.033Z,8.60
2017-10-31T10:06:15.573Z,10.77
2017-10-31T10:08:43.198Z,5.73
2017-10-31T10:11:10.743Z,7.20
2017-10-31T10:13:38.647Z,6.43
2017-10-31T10:16:06.183Z,6.47
2017-10-31T10:25:22.105Z,5.20
2017-10-31T10:27:49.794Z,7.73
2017-10-31T10:30:17.382Z,8.07
2017-10-31T10:32:45.076Z,6.43
2017-10-31T10:35:13.565Z,5.17
2017-10-31T10:37:41.107Z,5.83
2017-10-31T10:40:08.580Z,7.93
2017-10-31T10:42:36.139Z,7.70
2017-10-31T10:45:03.671Z,7.93
2017-10-31T10:47:31.149Z,8.23
2017-10-31T10:49:58.661Z,6.13
2017-10-31T10:52:26.224Z,6.10
2017-10-31T10:54:53.844Z,6.13
2017-10-31T10:57:21.319Z,5.17
2017-10-31T10:59:48.844Z,7.07
2017-10-31T11:02:16.384Z,6.60
2017-10-31T11:04:43.962Z,5.00
2017-10-31T11:07:11.574Z,5.43
2017-10-31T11:09:39.076Z,3.97
2017-10-31T11:12:06.684Z,4.93
2017-10-31T11:14:34.350Z,4.13
2017-10-31T11:17:01.869Z,5.13
2017-10-31T11:19:29.406Z,3.10
2017-10-31T11:21:56.950Z,6.33
2017-10-31T11:24:24.520Z,6.73
2017-10-31T11:26:52.078Z,3.50
2017-10-31T11:29:19.630Z,5.83
2017-10-31T11:31:47.106Z,3.63
2017-10-31T11:34:14.742Z,4.60
2017-10-31T11:36:42.268Z,4.37
2017-10-31T11:39:09.860Z,4.13
2017-10-31T11:41:37.394Z,5.37
2017-10-31T11:44:04.884Z,3.63
2017-10-31T11:46:32.463Z,4.07
2017-10-31T11:48:59.982Z,5.27
2017-10-31T11:51:27.548Z,3.47
2017-10-31T11:53:55.120Z,3.00
2017-10-31T11:56:22.641Z,7.67
2017-10-31T11:58:50.234Z,3.17
2017-10-31T12:01:17.855Z,3.10
2017-10-31T12:03:45.405Z,3.10
2017-10-31T12:06:12.866Z,4.43
2017-10-31T12:08:40.364Z,2.90
2017-10-31T12:11:07.866Z,3.90
2017-10-31T12:13:35.384Z,3.53
2017-10-31T12:16:02.916Z,4.30
2017-10-31T12:18:30.546Z,4.13
2017-10-31T12:23:40.521Z,3.10
2017-10-31T12:26:08.371Z,2.90
2017-10-31T12:28:36.838Z,3.40
2017-10-31T12:31:04.712Z,5.60
2017-10-31T12:33:32.430Z,4.27
2017-10-31T12:36:00.112Z,3.20
2017-10-31T12:38:27.641Z,2.97
2017-10-31T12:40:55.987Z,3.23
2017-10-31T12:43:23.593Z,4.10
2017-10-31T12:45:52.787Z,3.50
2017-10-31T12:48:20.616Z,3.90
2017-10-31T12:50:48.288Z,3.27
2017-10-31T12:53:16.047Z,5.33
2017-10-31T12:55:43.803Z,3.23
2017-10-31T12:58:12.360Z,2.63
2017-10-31T13:00:39.965Z,2.97
2017-10-31T13:03:08.703Z,4.23
2017-10-31T13:05:36.746Z,3.50
2017-10-31T13:08:04.420Z,2.87
2017-10-31T13:10:32.033Z,2.60
2017-10-31T13:12:59.682Z,3.57
2017-10-31T13:15:28.350Z,3.37
2017-10-31T13:17:56.308Z,3.97
2017-10-31T13:20:23.868Z,2.83
2017-10-31T13:22:51.479Z,3.77
2017-10-31T13:25:19.191Z,3.10
2017-10-31T13:27:47.116Z,2.90
2017-10-31T13:30:14.968Z,7.37
2017-10-31T13:32:42.772Z,3.37
2017-10-31T13:35:10.905Z,3.83
2017-10-31T13:37:38.809Z,3.17
2017-10-31T13:40:06.973Z,4.53
2017-10-31T13:42:35.535Z,2.83
2017-10-31T13:45:03.020Z,2.77
2017-10-31T13:47:33.655Z,3.63
2017-10-31T13:50:01.854Z,4.20
2017-10-31T13:52:29.861Z,3.57
2017-10-31T13:54:57.612Z,3.53
2017-10-31T13:57:25.109Z,3.87
2017-10-31T13:59:52.705Z,3.17
2017-10-31T14:02:21.460Z,4.47
2017-10-31T14:04:54.186Z,3.10
2017-10-31T14:07:21.946Z,5.23
2017-10-31T14:09:50.967Z,3.53
2017-10-31T14:12:18.860Z,5.27
2017-10-31T14:14:46.604Z,4.70
2017-10-31T14:17:14.158Z,3.90
2017-10-31T14:19:42.065Z,4.33
2017-10-31T14:22:09.749Z,5.37
2017-10-31T14:24:39.258Z,4.63
2017-10-31T14:27:06.790Z,3.53
2017-10-31T14:29:34.298Z,5.17
2017-10-31T14:32:01.837Z,4.23
2017-10-31T14:34:29.419Z,5.70
2017-10-31T14:36:56.995Z,3.70
2017-10-31T14:39:24.504Z,6.57
2017-10-31T14:41:52.025Z,6.70
2017-10-31T14:44:19.569Z,5.87
2017-10-31T14:46:47.489Z,5.30
2017-10-31T14:49:16.311Z,4.10
2017-10-31T14:51:43.866Z,5.07
2017-10-31T14:54:11.488Z,3.97
2017-10-31T14:56:39.051Z,4.73
2017-10-31T14:59:06.757Z,6.70
2017-10-31T15:01:34.248Z,9.60
2017-10-31T15:04:01.766Z,5.63
2017-10-31T15:06:29.279Z,5.90
2017-10-31T15:08:58.098Z,3.87
2017-10-31T15:11:25.734Z,4.53
2017-10-31T15:13:54.742Z,4.57
2017-10-31T15:16:22.909Z,4.23
2017-10-31T15:18:50.452Z,5.37
2017-10-31T15:21:20.283Z,6.97
2017-10-31T15:23:48.996Z,3.33
2017-10-31T15:26:17.209Z,3.13
2017-10-31T15:28:44.942Z,3.67
2017-10-31T15:31:15.247Z,7.50
2017-10-31T15:33:44.397Z,4.30
2017-10-31T15:36:12.722Z,4.73
2017-10-31T15:38:40.533Z,7.43
2017-10-31T15:41:08.512Z,4.93
2017-10-31T15:43:37.071Z,5.00
2017-10-31T15:46:04.641Z,5.90
2017-10-31T15:48:32.187Z,5.07
2017-10-31T15:50:59.660Z,5.27
2017-10-31T15:53:27.181Z,4.73
2017-10-31T15:55:54.720Z,5.50
2017-10-31T15:58:22.253Z,5.33
2017-10-31T16:00:49.788Z,7.10
2017-10-31T16:03:17.297Z,5.97
2017-10-31T16:05:45.071Z,5.33
2017-10-31T16:08:12.633Z,5.13
2017-10-31T16:10:40.204Z,4.37
2017-10-31T16:13:07.681Z,5.70
2017-10-31T16:15:35.201Z,5.63
2017-10-31T16:18:02.687Z,4.40
2017-10-31T16:20:30.341Z,3.50
2017-10-31T16:22:57.836Z,4.50
2017-10-31T16:25:25.400Z,5.10
2017-10-31T16:27:52.871Z,3.83
2017-10-31T16:30:20.472Z,5.83
2017-10-31T16:32:47.932Z,4.57
2017-10-31T16:35:15.447Z,6.10
2017-10-31T16:37:42.960Z,5.17
2017-10-31T16:40:10.577Z,5.67
2017-10-31T16:42:38.122Z,5.60
2017-10-31T16:45:05.604Z,7.43
2017-10-31T16:47:33.173Z,7.07
2017-10-31T16:50:00.654Z,6.07
2017-10-31T16:52:28.115Z,6.60
2017-10-31T16:54:55.640Z,5.53
2017-10-31T16:57:23.124Z,9.87
2017-10-31T16:59:50.608Z,7.40
2017-10-31T17:02:18.114Z,7.43
2017-10-31T17:04:45.627Z,5.27
2017-10-31T17:07:18.134Z,8.43
2017-10-31T17:09:45.608Z,8.00
2017-10-31T17:12:13.116Z,6.87
2017-10-31T17:14:40.644Z,7.37
2017-10-31T17:17:08.277Z,8.63
2017-10-31T17:19:35.789Z,9.10
2017-10-31T17:22:03.253Z,10.50
2017-10-31T17:24:30.774Z,10.53
2017-10-31T17:26:58.269Z,9.63
2017-10-31T17:29:25.825Z,12.87
2017-10-31T17:31:53.312Z,11.57
2017-10-31T17:34:20.863Z,14.33
2017-10-31T17:36:48.349Z,12.83
2017-10-31T17:39:15.899Z,14.90
2017-10-31T17:41:43.384Z,14.43
2017-10-31T17:44:10.902Z,14.77
2017-10-31T17:46:43.522Z,11.70
2017-10-31T17:49:11.022Z,12.77
2017-10-31T17:51:38.518Z,14.50
2017-10-31T17:54:06.036Z,11.50
2017-10-31T17:56:33.645Z,13.53
2017-10-31T17:59:01.393Z,12.43
2017-10-31T18:01:29.021Z,14.30
2017-10-31T18:03:56.585Z,10.93
2017-10-31T18:06:24.118Z,10.30
2017-10-31T18:08:51.650Z,10.87
2017-10-31T18:11:19.132Z,10.47
2017-10-31T18:13:46.673Z,11.47
2017-10-31T18:16:14.465Z,10.27
2017-10-31T18:18:46.513Z,11.27
2017-10-31T18:21:14.104Z,11.47
2017-10-31T18:23:41.704Z,9.03
2017-10-31T18:26:09.252Z,11.23
2017-10-31T18:28:37.702Z,11.03
2017-10-31T18:31:05.234Z,11.20
2017-10-31T18:33:32.774Z,11.33
2017-10-31T18:36:00.453Z,12.33
2017-10-31T18:38:27.965Z,11.17
2017-10-31T18:40:55.514Z,8.80
2017-10-31T18:43:23.008Z,10.37
2017-10-31T18:45:51.505Z,10.27
2017-10-31T18:48:19.050Z,11.90
2017-10-31T18:50:47.390Z,11.33
2017-10-31T18:53:14.866Z,10.07
2017-10-31T18:55:42.548Z,8.33
2017-10-31T18:58:10.131Z,10.80
2017-10-31T19:00:37.742Z,8.93
2017-10-31T19:03:05.638Z,8.43
2017-10-31T19:05:33.201Z,9.03
2017-10-31T19:08:00.739Z,8.63
2017-10-31T19:10:28.235Z,6.77
2017-10-31T19:12:56.232Z,6.70
2017-10-31T19:15:23.742Z,6.30
2017-10-31T19:17:51.299Z,5.93
2017-10-31T19:20:18.813Z,7.40
2017-10-31T19:22:46.359Z,6.37
2017-10-31T19:25:13.883Z,7.87
2017-10-31T19:27:41.403Z,8.43
2017-10-31T19:30:08.906Z,7.33
2017-10-31T19:32:36.711Z,8.37
2017-10-31T19:35:04.325Z,6.60
2017-10-31T19:37:31.988Z,7.17
2017-10-31T19:39:59.559Z,6.57
2017-10-31T19:42:27.146Z,6.43
2017-10-31T19:44:54.697Z,6.47
2017-10-31T19:47:27.439Z,6.30
2017-10-31T19:49:54.985Z,9.13
2017-10-31T19:52:22.554Z,10.50
2017-10-31T19:54:50.051Z,10.00
2017-10-31T19:57:17.607Z,9.60
2017-10-31T19:59:45.642Z,8.40
2017-10-31T20:02:13.212Z,7.70
2017-10-31T20:04:40.778Z,8.40
2017-10-31T20:07:08.435Z,9.13
2017-10-31T20:09:36.033Z,9.60
2017-10-31T20:12:04.391Z,7.60
2017-10-31T20:14:32.059Z,8.27
2017-10-31T20:16:59.727Z,10.43
2017-10-31T20:19:27.297Z,11.03
2017-10-31T20:21:54.865Z,9.03
2017-10-31T20:24:22.499Z,9.33
2017-10-31T20:26:50.094Z,9.10
2017-10-31T20:29:17.669Z,10.50
2017-10-31T20:31:45.289Z,9.27
2017-10-31T20:34:12.847Z,9.47
2017-10-31T20:36:40.457Z,8.77
2017-10-31T20:39:07.968Z,10.03
2017-10-31T20:41:35.555Z,10.80
2017-10-31T20:44:03.075Z,9.13
2017-10-31T20:46:30.565Z,11.33
2017-10-31T20:48:58.083Z,11.17
2017-10-31T20:51:25.576Z,10.70
2017-10-31T20:53:53.280Z,10.90
2017-10-31T20:56:20.750Z,11.67
2017-10-31T20:58:48.277Z,9.73
2017-10-31T21:01:15.777Z,14.50
2017-10-31T21:03:43.235Z,15.77
2017-10-31T21:06:10.919Z,14.83
2017-10-31T21:08:38.464Z,12.47
2017-10-31T21:11:05.995Z,9.73
2017-10-31T21:13:33.496Z,13.33
2017-10-31T21:16:00.998Z,13.30
2017-10-31T21:18:28.472Z,11.70
2017-10-31T21:20:56.004Z,11.87
2017-10-31T21:23:23.487Z,11.33
2017-10-31T21:25:51.111Z,11.77
2017-10-31T21:28:18.790Z,11.97
2017-10-31T21:30:46.282Z,11.43
2017-10-31T21:33:13.741Z,12.30
2017-10-31T21:35:41.290Z,13.77
2017-10-31T21:38:08.765Z,12.60
2017-10-31T21:40:36.263Z,12.30
2017-10-31T21:43:03.836Z,12.17
2017-10-31T21:45:31.303Z,13.60
